CLASSIFICA

INFERNO SNOW PRATO NEVOSO

CORSA AD OSTACOLI SULLA NEVE KM 5

PRATO NEVOSO (CN) 18/03/2018

DIVISIONI:
COMPETITIVA     NON AGONISTI     CLASSIFICA:   ASSOLUTA    M     F    
CATEGORIE:   TUTTE    |   13-17(M)   |   18-24(F)   |   18-24(M)   |   25-29(F)   |   25-29(M)   |   30-34(F)   |   30-34(M)   |   35-39(F)   |   35-39(M)   |   40-44(M)   |   45-49(M)   |   50-99(M)  
ALTRO: Classifica squadre 
FILTRO:
  Atleta      Team        Pulisci       Atleti classificati COMPETITIVA: 66  

Cliccare sulle colonne per cambiare ordinamento Pagina:   | 1 | | 2 |
Azioni Pos. M/F Cat. P.Cat. Pett Naz Atleta Squadra Tempo Distacco in tempo Distacco in metri Min/Km braccialetti
1125-29(M)1111DEL PIANO ANDREAINFERNOTEAM00:27:05 00:00:00 0 00:05:25 3
2225-29(M)2104KADIJA RIGERSINFERNOTEAM00:27:54 00:00:49 146 00:05:35 3
3330-34(M)1181DI GAETANO GIOVANNIATLETA INDIVIDUALE00:28:49 00:01:44 301 00:05:46 3
4430-34(M)2154PIGATO MARCOLIBERO00:28:54 00:01:49 314 00:05:47 3
5530-34(M)3132MACCHIAVELLO CLAUDIOINFERNOTEAM00:29:20 00:02:15 384 00:05:52 3
6618-24(M)1135CREPALDI FEDERICOF.C.T.CHIERI A.S.D00:29:21 00:02:16 386 00:05:52 3
7740-44(M)1116PELLEREI LUCATEAM WRI00:29:34 00:02:29 420 00:05:55 3
8830-34(M)4106TRIBAN MATTEOTEAM WRI00:31:45 00:04:40 735 00:06:21 3
9945-49(M)1174PILOTTA ALESSANDROLIBERO00:32:07 00:05:02 784 00:06:25 3
101035-39(M)1136FASSINO MARCOINFERNOTEAM00:32:13 00:05:08 797 00:06:27 3
111130-34(M)5113GIACONE MASSIMOLIBERO00:32:14 00:05:09 799 00:06:27 3
121225-29(M)3121GIANNETTONI LORENZOCALISTHENICS DRAGONS00:32:41 00:05:36 857 00:06:32 3
131330-34(M)6105PESCE FEDERICOLIBERO00:35:10 00:08:05 1.149 00:07:02 3
141425-29(M)4110CESTER JACOPOLIBERO00:35:37 00:08:32 1.198 00:07:07 3
151535-39(M)2168TROMBELLI MARCODAS TEAM OCR00:38:29 00:11:24 1.481 00:07:42 3
161630-34(M)7107ZAPPA STEFANOWHITE DONKEYS00:38:48 00:11:43 1.510 00:07:46 3
171735-39(M)3101BONAITA ALEXLIBERO00:39:39 00:12:34 1.585 00:07:56 3
181830-34(M)8166RONCHI LEANDROLIBERO00:49:51 00:22:46 2.284 00:09:58 3
19118-24(F)1108ZENGA CAROLINFERNOTEAM00:50:01 00:22:56 2.293 00:10:00 3
20230-34(F)1183BARDELLINI PAOLALIBERO00:50:01 00:22:56 2.293 00:10:00 3
21335-39(F)2117ACQUADRO ELENATEAM WRI00:53:02 00:25:57 2.447 00:10:36 3
221935-39(M)4143CERRATO ILARIOATHLON SAVONA00:29:54 00:02:49 471 00:05:59 2
232030-34(M)9140MUSSO FULVIOF.C.T.CHIERI A.S.D00:30:02 00:02:57 491 00:06:00 2
242125-29(M)5149ROA' EMANUELELIBERO00:30:19 00:03:14 533 00:06:04 2
252235-39(M)5158VALESIO FABIOSALTAFOSS00:32:00 00:04:55 768 00:06:24 2
262325-29(M)6169VALSANIA DANILOGLADIUS TEAM00:32:29 00:05:24 831 00:06:30 2
272445-49(M)2137GARBIN FABIOF.C.T.CHIERI A.S.D00:33:32 00:06:27 962 00:06:42 2
282550-99(M)1127CASALEGNO MARCOBASERUNNING00:34:13 00:07:08 1.042 00:06:51 2
292630-34(M)10141ORRA SIMONEF.C.T.CHIERI A.S.D00:34:41 00:07:36 1.096 00:06:56 2
302713-17(M)1170VENTURELLA ROSARIOLIBERO00:34:44 00:07:39 1.101 00:06:57 2
312818-24(M)2138MACCAGNO ALESSANDROF.C.T.CHIERI A.S.D00:34:46 00:07:41 1.105 00:06:57 2
322945-49(M)3163GEMELLI ALESSANDROLIBERO00:35:35 00:08:30 1.194 00:07:07 2
333040-44(M)2102DO NASCIMENTO MELLO LINCOLNLIBERO00:37:09 00:10:04 1.355 00:07:26 2
343118-24(M)3123MORETTI FEDERICOGLADIUS TEAM00:37:21 00:10:16 1.374 00:07:28 2
353218-24(M)4114GRASSO MATTEOGLADIUS TEAM00:37:29 00:10:24 1.387 00:07:30 2
363340-44(M)3173OCCELLI EZIOLIBERO00:37:41 00:10:36 1.406 00:07:32 2
373440-44(M)4178SGHERRI FREDILIBERO00:37:44 00:10:39 1.411 00:07:33 2
383530-34(M)11112ESU DAVIDELIBERO00:37:52 00:10:47 1.424 00:07:34 2
393635-39(M)6152BOSIA MARIOLIBERO00:37:53 00:10:48 1.425 00:07:35 2
403735-39(M)7161ZULIAN LEONARDOLIBERO00:38:24 00:11:19 1.474 00:07:41 2
413840-44(M)5167TESSARIN ANDREA RICCARDOLIBERO00:39:17 00:12:12 1.553 00:07:51 2
423918-24(M)5176ROA' CLAUDIOLIBERO00:39:42 00:12:37 1.589 00:07:56 2
434018-24(M)6109ALFIER THOMASCALISTHENICS DRAGONS00:40:02 00:12:57 1.617 00:08:00 2
444130-34(M)12125BARALDI DAVIDEWHITE DONKEYS00:40:25 00:13:20 1.649 00:08:05 2
454218-24(M)7172ERCOLANI MICHAELLIBERO00:40:29 00:13:24 1.655 00:08:06 2
464335-39(M)8118ANDREOTTI GIACOMOLIBERO00:41:08 00:14:03 1.708 00:08:14 2
474440-44(M)6157SOLETTO DAVIDEATHLON SAVONA00:41:25 00:14:20 1.730 00:08:17 2
484530-34(M)13156SANTORO GABRIELGLADIUS TEAM00:41:36 00:14:31 1.745 00:08:19 2
494613-17(M)2124PELLEREI FLAVIOTEAM WRI00:41:52 00:14:47 1.766 00:08:22 2
504725-29(M)7148POLLINI EMANUELELIBERO00:42:21 00:15:16 1.802 00:08:28 2
514830-34(M)14179SOLARI GIANLUCALIBERO00:43:14 00:16:09 1.868 00:08:39 2
524925-29(M)8159VICO ROBERTOGLADIUS TEAM00:44:39 00:17:34 1.967 00:08:56 2
535040-44(M)7147PETTORALI SIMONELIBERO00:45:03 00:17:58 1.994 00:09:01 2
545118-24(M)8131LOTTI SIMONEGLADIUS TEAM00:45:34 00:18:29 2.028 00:09:07 2
555240-44(M)8164GIANELLI GABRIELELIBERO00:45:35 00:18:30 2.029 00:09:07 2
565318-24(M)9171CIGNETTI MATTIADINAMIX TEAM00:46:43 00:19:38 2.101 00:09:21 2
575430-34(M)15155RESTUCCIA NICOLALIBERO00:47:57 00:20:52 2.176 00:09:35 2
585525-29(M)9162CICCONE MASSIMOLIBERO00:48:54 00:21:49 2.231 00:09:47 2
595630-34(M)16150SEIA GIUSEPPEGLADIUS TEAM00:48:56 00:21:51 2.233 00:09:47 2
605718-24(M)10103ELOQUENTE LUCADINAMIX TEAM00:49:56 00:22:51 2.288 00:09:59 2
615818-24(M)11119CAI ANDREALIBERO00:50:19 00:23:14 2.309 00:10:04 2
625925-29(M)10151VALSANIA ALESSIOGLADIUS TEAM00:52:02 00:24:57 2.398 00:10:24 2
63425-29(F)1153BRUNO SILVIAGLADIUS TEAM00:51:13 00:24:08 2.356 00:10:15 1
64525-29(F)2146PERAZZO GIULIAGLADIUS TEAM00:44:41 00:17:36 1.969 00:08:56 0
65625-29(F)3160ZAVATTIN MARTINAGLADIUS TEAM00:52:20 00:25:15 2.412 00:10:28 0
666030-34(M)17182SOZZI GIANPIETROATLETA INDIVIDUALE00:56:04 00:28:59 2.585 00:11:13 0
Righe per pagina::     TUTTE    |   30   |   50   |   100   Pagina:   | 1 | | 2 |